Purdue University Airport
KLAF : rendu visible

Aérodrome :











RETROUVEZ-NOUS SUR...

 
LOGIN :

S'inscrire | Disclaimer

   EN    FR    IT 

 









Légende :    VFR   VFR Marginal   IFR   IFR Intensif   IFR Très Intensif
Visi : 
Plafond : 
>= 8 km
>= 3000ft
5 à 8 km
1000 à 3000 ft
1500m à 5 km
500 à 1000 ft
800 à 1500m
200 à 500 ft
< 800m
< 200 ft
Symboles :   Orages  Brouillard  Fortes neiges  Fortes précipitations  Vent > 20 kt







- Altitude de l'aérodrome : 606 ft
- Code IATA : LAF


KLAF - Purdue University

DERNIER METAR :
  • 201554Z 20009KT 10SM CLR 29/23 A3002 RMK AO2 SLP161 T02940233

METARs EXPIRÉS :
  • 201454Z 21006KT 10SM CLR 29/23 A3004 RMK AO2 SLP167 T02890228 51007
  • 201354Z 19004KT 10SM CLR 27/23 A3003 RMK AO2 SLP162 T02720233

TAF KLAF
Valide du 20 à 15h jusqu'au 21 à 12h UTC


201442Z 2015/2112 19004KT P6SM SCT060
FM201700 23005KT 6SM -SHRA VCTS SCT040CB OVC180
TEMPO 2017/2021 27012G25KT 2SM TSRA BR BKN040CB
FM202300 23005KT P6SM VCTS FEW040CB SCT200
FM210200 23005KT P6SM SCT040 BKN200
FM210900 VRB03KT P6SM BKN015
Pas de NOTAMs connus pour ce terrain.



MET'MAP, la Météo Aéronautique d'un coup d'oeil ! - Copyright ORBIFLY Décembre 2007 - Disclaimer

ORBIFLY MET'MAP TEAM :

Programmation & Développement : Alexandra Zaïnal
Conception & Développement : Baudouin d'Aumeries
Co-Programmation & Développement : Marc-Olivier Méhu
Soutien technique & logistique : Manuel Goepfert

Contact : metmap@orbifly.com




SOURCES & CREDITS :

   NOAA       Earth
Advisory